Kumamoto, Japan
Current Conditions -  °F | °C
As of 2:00 PM on Thursday 23 Oct 2014 (Local Time) from RJFT Reporting Station
Few Clouds Few Clouds  
Wind Chill: 70°   Ceiling: Unl
Heat Index: 70°   Visibility: 6mi
Dew Point: 50°   Wind: 2mph
Humidity: 49%   Direction: NA
Pressure: 30"   Gusts: NA
Location:  32.8°N, 130.71°E
Report Text: RJFT 230500Z VRB02KT 9999 FEW040 21/10 Q1016
Loading
Personal Weather Stations






























Interactive Weather Map
Tropical Storm Tracking
New forecast layout! Learn more

10-Day Weather Forecast

Advertisements
Track Severe Weather on mobile